Aérodrome :
LOGIN :

S'inscrire | Disclaimer

   EN    FR    IT 

 










Légende :    VFR   VFR Marginal   IFR   IFR Intensif   IFR Très Intensif
Visi : 
Plafond : 
>= 8 km
>= 3000ft
5 à 8 km
1000 à 3000 ft
1500m à 5 km
500 à 1000 ft
800 à 1500m
200 à 500 ft
< 800m
< 200 ft
Symboles :   Orages  Brouillard  Fortes neiges  Fortes précipitations  Vent > 20 kt
SIGMETs :   Divers  Orages  Givrage  Turbulence  Onde Orograph.  Cendres Volcan.







- Altitude de l'aérodrome : 24 ft
- Code IATA : IBZ


LEIB - Ibiza

DERNIER METAR :
  • 292100Z 15004KT 120V180 9999 SCT030 14/09 Q1015 NOSIG

METARs EXPIRÉS :
  • 292030Z 16004KT 120V190 9999 SCT030 14/08 Q1015 NOSIG
  • 292000Z 14004KT 080V190 9999 SCT030 14/08 Q1015 NOSIG
  • 291930Z 14004KT 9999 SCT030 14/08 Q1015 NOSIG
  • 291900Z 13004KT 100V190 9999 SCT030 15/08 Q1015 NOSIG
  • 291830Z 13006KT 100V160 9999 SCT032 16/08 Q1015 NOSIG

TAF TAF LEIB
Valide du 29 à 21h jusqu'au 30 à 21h UTC


292000Z 2921/3021 16007KT 9999 FEW020 TX19/3012Z TN12/3006Z
PROB30
TEMPO 3003/3010 BKN014
BECMG 3004/3006 22010KT
TEMPO 3012/3018 22010G20KT
Pas de NOTAMs connus pour ce terrain.



MET'MAP, la Météo Aéronautique d'un coup d'oeil ! - Copyright ORBIFLY Décembre 2007 - Disclaimer

ORBIFLY MET'MAP TEAM :

Programmation & Développement : Alexandra Zaïnal
Conception & Développement : Baudouin d'Aumeries
Co-Programmation & Développement : Marc-Olivier Méhu
Soutien technique & logistique : Manuel Goepfert

Contact : metmap@orbifly.com




SOURCES & CREDITS :

   NOAA